SCYU weather

Cuyumaique Airport
Purranque, Los Lagos Region, Chile

Public forecast

Using degrees Celsius for public forecast. Weather courtesy of forecast.io.

Closest aviation weather report (METAR) to Cuyumaique Airport

Closest report is Cañal Bajo Carlos - Hott Siebert Airport, 19.9 nm (36.9 km) N. Retrieved 2020/02/28 17:00 UTC (6 minutes ago):

SCJO 281700Z 17008KT 9999 BKN025 20/14 Q1021

Closest aviation forecast (TAF) to Cuyumaique Airport

Closest forecast is Cañal Bajo Carlos - Hott Siebert Airport, 19.9 nm (36.9 km) N. Retrieved 2020/02/28 12:33 UTC (5 hours ago):

TAF SCJO 281026Z 2812/2824 VRB02KT 9999 OVC012 TN14/2812Z TX24/2820Z BECMG 2814/2816 18015KT CAVOK